sensor_id;sensor_type;location;lat;lon;timestamp;pressure;altitude;pressure_sealevel;temperature;humidity
53262;BME280;39658;51.090;-1.786;2023-02-23T00:00:14;100876.34;;;3.32;100.00
53262;BME280;39658;51.090;-1.786;2023-02-23T00:02:46;100883.22;;;3.34;100.00
53262;BME280;39658;51.090;-1.786;2023-02-23T00:05:14;100879.47;;;3.41;100.00
53262;BME280;39658;51.090;-1.786;2023-02-23T00:07:42;100885.47;;;3.45;100.00
53262;BME280;39658;51.090;-1.786;2023-02-23T00:10:11;100886.16;;;3.50;100.00
53262;BME280;39658;51.090;-1.786;2023-02-23T00:12:38;100886.03;;;3.53;100.00
53262;BME280;39658;51.090;-1.786;2023-02-23T00:15:08;100889.53;;;3.52;100.00
53262;BME280;39658;51.090;-1.786;2023-02-23T00:17:35;100887.81;;;3.53;100.00
53262;BME280;39658;51.090;-1.786;2023-02-23T00:20:04;100885.00;;;3.59;100.00
53262;BME280;39658;51.090;-1.786;2023-02-23T00:22:37;100888.44;;;3.59;100.00
53262;BME280;39658;51.090;-1.786;2023-02-23T00:25:06;100887.75;;;3.54;100.00
53262;BME280;39658;51.090;-1.786;2023-02-23T00:27:33;100882.91;;;3.44;100.00
53262;BME280;39658;51.090;-1.786;2023-02-23T00:30:01;100883.16;;;3.36;100.00
53262;BME280;39658;51.090;-1.786;2023-02-23T00:32:29;100881.25;;;3.41;100.00
53262;BME280;39658;51.090;-1.786;2023-02-23T00:34:56;100876.03;;;3.41;100.00
53262;BME280;39658;51.090;-1.786;2023-02-23T00:37:23;100879.63;;;3.37;100.00
53262;BME280;39658;51.090;-1.786;2023-02-23T00:39:53;100886.22;;;3.22;100.00
53262;BME280;39658;51.090;-1.786;2023-02-23T00:42:20;100885.78;;;3.08;100.00
53262;BME280;39658;51.090;-1.786;2023-02-23T00:44:47;100885.41;;;2.93;100.00
53262;BME280;39658;51.090;-1.786;2023-02-23T00:47:14;100896.09;;;2.84;100.00
53262;BME280;39658;51.090;-1.786;2023-02-23T00:49:42;100896.56;;;2.68;100.00
53262;BME280;39658;51.090;-1.786;2023-02-23T00:52:10;100899.25;;;2.65;100.00
53262;BME280;39658;51.090;-1.786;2023-02-23T00:54:39;100895.06;;;2.61;100.00
53262;BME280;39658;51.090;-1.786;2023-02-23T00:57:05;100894.38;;;2.55;100.00
53262;BME280;39658;51.090;-1.786;2023-02-23T00:59:32;100896.22;;;2.51;100.00
53262;BME280;39658;51.090;-1.786;2023-02-23T01:01:59;100894.47;;;2.51;100.00
53262;BME280;39658;51.090;-1.786;2023-02-23T01:04:26;100894.06;;;2.65;100.00
53262;BME280;39658;51.090;-1.786;2023-02-23T01:06:54;100902.56;;;2.72;100.00
53262;BME280;39658;51.090;-1.786;2023-02-23T01:09:21;100901.69;;;2.72;100.00
53262;BME280;39658;51.090;-1.786;2023-02-23T01:11:53;100898.13;;;2.74;100.00
53262;BME280;39658;51.090;-1.786;2023-02-23T01:14:22;100905.66;;;2.83;100.00
53262;BME280;39658;51.090;-1.786;2023-02-23T01:16:49;100901.78;;;2.97;100.00
53262;BME280;39658;51.090;-1.786;2023-02-23T01:19:15;100911.06;;;3.05;100.00
53262;BME280;39658;51.090;-1.786;2023-02-23T01:21:42;100912.63;;;3.11;100.00
53262;BME280;39658;51.090;-1.786;2023-02-23T01:24:11;100920.16;;;3.20;100.00
53262;BME280;39658;51.090;-1.786;2023-02-23T01:26:40;100916.56;;;3.23;100.00
53262;BME280;39658;51.090;-1.786;2023-02-23T01:29:09;100920.84;;;3.26;100.00
53262;BME280;39658;51.090;-1.786;2023-02-23T01:31:38;100918.22;;;3.26;100.00
53262;BME280;39658;51.090;-1.786;2023-02-23T01:34:05;100924.91;;;3.34;100.00
53262;BME280;39658;51.090;-1.786;2023-02-23T01:36:33;100914.28;;;3.40;100.00
53262;BME280;39658;51.090;-1.786;2023-02-23T01:39:00;100917.53;;;3.47;100.00
53262;BME280;39658;51.090;-1.786;2023-02-23T01:41:32;100914.09;;;3.47;100.00
53262;BME280;39658;51.090;-1.786;2023-02-23T01:44:01;100909.59;;;3.50;100.00
53262;BME280;39658;51.090;-1.786;2023-02-23T01:46:31;100915.75;;;3.48;100.00
53262;BME280;39658;51.090;-1.786;2023-02-23T01:48:58;100905.53;;;3.41;100.00
53262;BME280;39658;51.090;-1.786;2023-02-23T01:51:27;100919.75;;;3.33;100.00
53262;BME280;39658;51.090;-1.786;2023-02-23T01:53:58;100919.81;;;3.31;100.00
53262;BME280;39658;51.090;-1.786;2023-02-23T01:56:28;100924.09;;;3.32;100.00
53262;BME280;39658;51.090;-1.786;2023-02-23T01:59:02;100920.19;;;3.46;100.00
53262;BME280;39658;51.090;-1.786;2023-02-23T02:01:30;100927.75;;;3.53;100.00
53262;BME280;39658;51.090;-1.786;2023-02-23T02:04:00;100926.72;;;3.59;100.00
53262;BME280;39658;51.090;-1.786;2023-02-23T02:06:30;100926.56;;;3.64;100.00
53262;BME280;39658;51.090;-1.786;2023-02-23T02:09:00;100922.91;;;3.68;100.00
53262;BME280;39658;51.090;-1.786;2023-02-23T02:11:31;100922.72;;;3.74;100.00
53262;BME280;39658;51.090;-1.786;2023-02-23T02:14:05;100928.66;;;3.77;100.00
53262;BME280;39658;51.090;-1.786;2023-02-23T02:17:05;100918.06;;;3.82;100.00
53262;BME280;39658;51.090;-1.786;2023-02-23T02:26:02;100934.16;;;3.95;100.00
53262;BME280;39658;51.090;-1.786;2023-02-23T02:31:59;100933.13;;;3.99;100.00
53262;BME280;39658;51.090;-1.786;2023-02-23T02:38:23;100941.28;;;3.90;100.00
53262;BME280;39658;51.090;-1.786;2023-02-23T02:40:58;100940.53;;;3.86;100.00
53262;BME280;39658;51.090;-1.786;2023-02-23T02:43:35;100936.06;;;3.90;100.00
53262;BME280;39658;51.090;-1.786;2023-02-23T02:46:05;100934.50;;;3.86;100.00
53262;BME280;39658;51.090;-1.786;2023-02-23T02:48:39;100935.31;;;3.86;100.00
53262;BME280;39658;51.090;-1.786;2023-02-23T02:51:12;100933.56;;;3.87;100.00
53262;BME280;39658;51.090;-1.786;2023-02-23T02:53:50;100935.38;;;3.85;100.00
53262;BME280;39658;51.090;-1.786;2023-02-23T02:56:19;100938.84;;;3.85;100.00
53262;BME280;39658;51.090;-1.786;2023-02-23T02:58:48;100938.72;;;3.88;100.00
53262;BME280;39658;51.090;-1.786;2023-02-23T03:01:16;100932.72;;;3.86;100.00
53262;BME280;39658;51.090;-1.786;2023-02-23T03:04:16;100931.00;;;3.85;100.00
53262;BME280;39658;51.090;-1.786;2023-02-23T03:07:07;100929.13;;;3.90;100.00
53262;BME280;39658;51.090;-1.786;2023-02-23T03:10:01;100931.63;;;3.93;100.00
53262;BME280;39658;51.090;-1.786;2023-02-23T03:12:55;100933.28;;;3.94;100.00
53262;BME280;39658;51.090;-1.786;2023-02-23T03:15:48;100929.84;;;3.94;100.00
53262;BME280;39658;51.090;-1.786;2023-02-23T03:18:49;100931.63;;;3.93;100.00
53262;BME280;39658;51.090;-1.786;2023-02-23T03:21:45;100929.00;;;3.93;100.00
53262;BME280;39658;51.090;-1.786;2023-02-23T03:24:37;100931.72;;;3.90;100.00
53262;BME280;39658;51.090;-1.786;2023-02-23T03:27:27;100930.84;;;3.90;100.00
53262;BME280;39658;51.090;-1.786;2023-02-23T03:30:22;100929.16;;;3.89;100.00
53262;BME280;39658;51.090;-1.786;2023-02-23T03:33:13;100933.41;;;3.91;100.00
53262;BME280;39658;51.090;-1.786;2023-02-23T03:36:03;100943.84;;;3.91;100.00
53262;BME280;39658;51.090;-1.786;2023-02-23T03:38:57;100936.78;;;3.95;100.00
53262;BME280;39658;51.090;-1.786;2023-02-23T03:41:45;100935.97;;;3.93;100.00
53262;BME280;39658;51.090;-1.786;2023-02-23T03:44:36;100945.50;;;3.94;100.00
53262;BME280;39658;51.090;-1.786;2023-02-23T03:47:24;100948.09;;;3.94;100.00
53262;BME280;39658;51.090;-1.786;2023-02-23T03:50:14;100946.19;;;3.99;100.00
53262;BME280;39658;51.090;-1.786;2023-02-23T03:53:03;100942.72;;;3.99;100.00
53262;BME280;39658;51.090;-1.786;2023-02-23T03:55:50;100941.94;;;3.97;100.00
53262;BME280;39658;51.090;-1.786;2023-02-23T03:58:40;100950.28;;;4.06;100.00
53262;BME280;39658;51.090;-1.786;2023-02-23T04:01:28;100954.00;;;3.99;100.00
53262;BME280;39658;51.090;-1.786;2023-02-23T04:04:15;100961.00;;;3.99;100.00
53262;BME280;39658;51.090;-1.786;2023-02-23T04:07:01;100958.50;;;3.95;100.00
53262;BME280;39658;51.090;-1.786;2023-02-23T04:09:46;100963.81;;;3.92;100.00
53262;BME280;39658;51.090;-1.786;2023-02-23T04:12:36;100967.47;;;3.87;100.00
53262;BME280;39658;51.090;-1.786;2023-02-23T04:15:25;100975.44;;;3.82;100.00
53262;BME280;39658;51.090;-1.786;2023-02-23T04:17:53;100979.63;;;3.88;100.00
53262;BME280;39658;51.090;-1.786;2023-02-23T04:20:21;100984.88;;;3.86;100.00
53262;BME280;39658;51.090;-1.786;2023-02-23T04:22:48;100981.28;;;3.90;100.00
53262;BME280;39658;51.090;-1.786;2023-02-23T04:25:16;100982.13;;;3.91;100.00
53262;BME280;39658;51.090;-1.786;2023-02-23T04:27:43;100984.06;;;3.86;100.00
53262;BME280;39658;51.090;-1.786;2023-02-23T04:30:11;100983.06;;;3.88;100.00
53262;BME280;39658;51.090;-1.786;2023-02-23T04:32:38;100992.56;;;3.91;100.00
53262;BME280;39658;51.090;-1.786;2023-02-23T04:35:07;100996.06;;;3.90;100.00
53262;BME280;39658;51.090;-1.786;2023-02-23T04:37:33;100996.88;;;3.92;100.00
53262;BME280;39658;51.090;-1.786;2023-02-23T04:40:00;101002.94;;;3.92;100.00
53262;BME280;39658;51.090;-1.786;2023-02-23T04:42:27;101004.66;;;3.93;100.00
53262;BME280;39658;51.090;-1.786;2023-02-23T04:44:54;101012.44;;;3.95;100.00
53262;BME280;39658;51.090;-1.786;2023-02-23T04:47:21;101006.44;;;3.91;100.00
53262;BME280;39658;51.090;-1.786;2023-02-23T04:49:47;101012.47;;;3.93;100.00
53262;BME280;39658;51.090;-1.786;2023-02-23T04:52:16;101017.75;;;3.92;100.00
53262;BME280;39658;51.090;-1.786;2023-02-23T04:54:42;101017.91;;;3.87;100.00
53262;BME280;39658;51.090;-1.786;2023-02-23T04:57:09;101020.63;;;3.84;100.00
53262;BME280;39658;51.090;-1.786;2023-02-23T04:59:36;101024.91;;;3.85;100.00
53262;BME280;39658;51.090;-1.786;2023-02-23T05:02:03;101021.50;;;3.83;100.00
53262;BME280;39658;51.090;-1.786;2023-02-23T05:04:31;101026.72;;;3.83;100.00
53262;BME280;39658;51.090;-1.786;2023-02-23T05:06:59;101033.66;;;3.84;100.00
53262;BME280;39658;51.090;-1.786;2023-02-23T05:09:29;101030.19;;;3.84;100.00
53262;BME280;39658;51.090;-1.786;2023-02-23T05:11:56;101038.09;;;3.81;100.00
53262;BME280;39658;51.090;-1.786;2023-02-23T05:14:23;101034.75;;;3.77;100.00
53262;BME280;39658;51.090;-1.786;2023-02-23T05:16:50;101041.69;;;3.78;100.00
53262;BME280;39658;51.090;-1.786;2023-02-23T05:19:17;101045.22;;;3.75;100.00
53262;BME280;39658;51.090;-1.786;2023-02-23T05:21:43;101054.88;;;3.73;100.00
53262;BME280;39658;51.090;-1.786;2023-02-23T05:24:10;101050.50;;;3.74;100.00
53262;BME280;39658;51.090;-1.786;2023-02-23T05:26:38;101053.97;;;3.74;100.00
53262;BME280;39658;51.090;-1.786;2023-02-23T05:29:05;101054.72;;;3.78;100.00
53262;BME280;39658;51.090;-1.786;2023-02-23T05:31:32;101060.13;;;3.72;100.00
53262;BME280;39658;51.090;-1.786;2023-02-23T05:33:58;101055.72;;;3.74;100.00
53262;BME280;39658;51.090;-1.786;2023-02-23T05:36:25;101061.03;;;3.71;100.00
53262;BME280;39658;51.090;-1.786;2023-02-23T05:38:52;101059.28;;;3.71;100.00
53262;BME280;39658;51.090;-1.786;2023-02-23T05:41:21;101064.66;;;3.67;100.00
53262;BME280;39658;51.090;-1.786;2023-02-23T05:43:50;101073.47;;;3.63;100.00
53262;BME280;39658;51.090;-1.786;2023-02-23T05:46:20;101072.47;;;3.67;100.00
53262;BME280;39658;51.090;-1.786;2023-02-23T05:48:48;101081.03;;;3.70;100.00
53262;BME280;39658;51.090;-1.786;2023-02-23T05:51:15;101075.94;;;3.67;100.00
53262;BME280;39658;51.090;-1.786;2023-02-23T05:53:43;101073.19;;;3.72;100.00
53262;BME280;39658;51.090;-1.786;2023-02-23T05:56:13;101074.00;;;3.72;100.00
53262;BME280;39658;51.090;-1.786;2023-02-23T05:58:43;101069.78;;;3.70;100.00
53262;BME280;39658;51.090;-1.786;2023-02-23T06:01:11;101075.00;;;3.70;100.00
53262;BME280;39658;51.090;-1.786;2023-02-23T06:03:38;101075.94;;;3.67;100.00
53262;BME280;39658;51.090;-1.786;2023-02-23T06:06:05;101073.22;;;3.70;100.00
53262;BME280;39658;51.090;-1.786;2023-02-23T06:08:32;101081.03;;;3.70;100.00
53262;BME280;39658;51.090;-1.786;2023-02-23T06:10:59;101078.44;;;3.70;100.00
53262;BME280;39658;51.090;-1.786;2023-02-23T06:13:26;101078.50;;;3.69;100.00
53262;BME280;39658;51.090;-1.786;2023-02-23T06:15:52;101071.59;;;3.66;100.00
53262;BME280;39658;51.090;-1.786;2023-02-23T06:18:21;101076.91;;;3.63;100.00
53262;BME280;39658;51.090;-1.786;2023-02-23T06:20:47;101080.50;;;3.61;100.00
53262;BME280;39658;51.090;-1.786;2023-02-23T06:23:14;101078.78;;;3.59;100.00
53262;BME280;39658;51.090;-1.786;2023-02-23T06:25:41;101075.22;;;3.62;100.00
53262;BME280;39658;51.090;-1.786;2023-02-23T06:28:08;101070.94;;;3.59;100.00
53262;BME280;39658;51.090;-1.786;2023-02-23T06:30:36;101074.31;;;3.63;100.00
53262;BME280;39658;51.090;-1.786;2023-02-23T06:33:04;101079.53;;;3.63;100.00
53262;BME280;39658;51.090;-1.786;2023-02-23T06:35:32;101083.06;;;3.62;100.00
53262;BME280;39658;51.090;-1.786;2023-02-23T06:37:59;101081.28;;;3.63;100.00
53262;BME280;39658;51.090;-1.786;2023-02-23T06:40:26;101089.06;;;3.64;100.00
53262;BME280;39658;51.090;-1.786;2023-02-23T06:42:55;101082.28;;;3.58;100.00
53262;BME280;39658;51.090;-1.786;2023-02-23T06:45:22;101091.63;;;3.66;100.00
53262;BME280;39658;51.090;-1.786;2023-02-23T06:47:48;101098.47;;;3.70;100.00
53262;BME280;39658;51.090;-1.786;2023-02-23T06:50:16;101100.16;;;3.71;100.00
53262;BME280;39658;51.090;-1.786;2023-02-23T06:52:44;101101.81;;;3.73;100.00
53262;BME280;39658;51.090;-1.786;2023-02-23T06:55:11;101107.03;;;3.73;100.00
53262;BME280;39658;51.090;-1.786;2023-02-23T06:57:38;101100.91;;;3.74;100.00
53262;BME280;39658;51.090;-1.786;2023-02-23T07:00:07;101107.97;;;3.71;100.00
53262;BME280;39658;51.090;-1.786;2023-02-23T07:02:34;101099.53;;;3.63;100.00
53262;BME280;39658;51.090;-1.786;2023-02-23T07:05:02;101119.22;;;3.73;100.00
53262;BME280;39658;51.090;-1.786;2023-02-23T07:07:29;101102.09;;;3.64;100.00
53262;BME280;39658;51.090;-1.786;2023-02-23T07:09:58;101115.78;;;3.71;100.00
53262;BME280;39658;51.090;-1.786;2023-02-23T07:12:25;101133.94;;;3.74;100.00
53262;BME280;39658;51.090;-1.786;2023-02-23T07:14:51;101131.25;;;3.77;100.00
53262;BME280;39658;51.090;-1.786;2023-02-23T07:17:18;101131.25;;;3.77;100.00
53262;BME280;39658;51.090;-1.786;2023-02-23T07:19:45;101139.13;;;3.75;100.00
53262;BME280;39658;51.090;-1.786;2023-02-23T07:22:12;101141.59;;;3.80;100.00
53262;BME280;39658;51.090;-1.786;2023-02-23T07:24:39;101145.03;;;3.81;100.00
53262;BME280;39658;51.090;-1.786;2023-02-23T07:27:07;101145.00;;;3.82;100.00
53262;BME280;39658;51.090;-1.786;2023-02-23T07:29:34;101149.28;;;3.85;100.00
53262;BME280;39658;51.090;-1.786;2023-02-23T07:32:00;101151.75;;;3.89;100.00
53262;BME280;39658;51.090;-1.786;2023-02-23T07:34:27;101157.78;;;3.90;100.00
53262;BME280;39658;51.090;-1.786;2023-02-23T07:36:54;101156.84;;;3.92;100.00
53262;BME280;39658;51.090;-1.786;2023-02-23T07:39:21;101153.16;;;4.00;100.00
53262;BME280;39658;51.090;-1.786;2023-02-23T07:41:47;101150.47;;;4.03;100.00
53262;BME280;39658;51.090;-1.786;2023-02-23T07:44:15;101150.25;;;4.09;100.00
53262;BME280;39658;51.090;-1.786;2023-02-23T07:46:42;101150.97;;;4.14;100.00
53262;BME280;39658;51.090;-1.786;2023-02-23T07:49:10;101144.84;;;4.15;100.00
53262;BME280;39658;51.090;-1.786;2023-02-23T07:51:38;101155.28;;;4.15;100.00
53262;BME280;39658;51.090;-1.786;2023-02-23T07:54:05;101162.03;;;4.21;100.00
53262;BME280;39658;51.090;-1.786;2023-02-23T07:56:32;101165.28;;;4.29;100.00
53262;BME280;39658;51.090;-1.786;2023-02-23T07:58:59;101162.63;;;4.30;100.00
53262;BME280;39658;51.090;-1.786;2023-02-23T08:01:28;101169.38;;;4.36;100.00
53262;BME280;39658;51.090;-1.786;2023-02-23T08:03:55;101169.06;;;4.45;100.00
53262;BME280;39658;51.090;-1.786;2023-02-23T08:06:22;101164.69;;;4.47;100.00
53262;BME280;39658;51.090;-1.786;2023-02-23T08:08:48;101170.59;;;4.53;100.00
53262;BME280;39658;51.090;-1.786;2023-02-23T08:11:15;101170.47;;;4.56;100.00
53262;BME280;39658;51.090;-1.786;2023-02-23T08:13:42;101180.25;;;4.51;100.00
53262;BME280;39658;51.090;-1.786;2023-02-23T08:16:09;101178.22;;;4.59;100.00
53262;BME280;39658;51.090;-1.786;2023-02-23T08:18:38;101180.56;;;4.66;100.00
53262;BME280;39658;51.090;-1.786;2023-02-23T08:21:05;101177.91;;;4.68;100.00
53262;BME280;39658;51.090;-1.786;2023-02-23T08:23:33;101182.91;;;4.74;100.00
53262;BME280;39658;51.090;-1.786;2023-02-23T08:26:01;101182.91;;;4.74;100.00
53262;BME280;39658;51.090;-1.786;2023-02-23T08:28:28;101186.78;;;4.88;100.00
53262;BME280;39658;51.090;-1.786;2023-02-23T08:30:55;101189.16;;;4.95;100.00
53262;BME280;39658;51.090;-1.786;2023-02-23T08:33:23;101200.16;;;5.05;100.00
53262;BME280;39658;51.090;-1.786;2023-02-23T08:35:52;101191.16;;;5.12;100.00
53262;BME280;39658;51.090;-1.786;2023-02-23T08:38:18;101184.38;;;5.32;100.00
53262;BME280;39658;51.090;-1.786;2023-02-23T08:40:46;101187.59;;;5.38;100.00
53262;BME280;39658;51.090;-1.786;2023-02-23T08:43:12;101191.44;;;5.28;100.00
53262;BME280;39658;51.090;-1.786;2023-02-23T08:45:39;101195.22;;;5.21;100.00
53262;BME280;39658;51.090;-1.786;2023-02-23T08:48:06;101187.91;;;5.06;100.00
53262;BME280;39658;51.090;-1.786;2023-02-23T08:50:33;101183.81;;;4.98;100.00
53262;BME280;39658;51.090;-1.786;2023-02-23T08:53:02;101186.78;;;4.88;100.00
53262;BME280;39658;51.090;-1.786;2023-02-23T08:55:29;101190.03;;;4.96;100.00
53262;BME280;39658;51.090;-1.786;2023-02-23T08:57:58;101176.13;;;5.19;100.00
53262;BME280;39658;51.090;-1.786;2023-02-23T09:00:24;101179.75;;;5.38;100.00
53262;BME280;39658;51.090;-1.786;2023-02-23T09:02:51;101170.97;;;5.41;100.00
53262;BME280;39658;51.090;-1.786;2023-02-23T09:05:18;101172.69;;;5.40;100.00
53262;BME280;39658;51.090;-1.786;2023-02-23T09:07:45;101181.31;;;5.44;100.00
53262;BME280;39658;51.090;-1.786;2023-02-23T09:10:18;101185.09;;;5.59;100.00
53262;BME280;39658;51.090;-1.786;2023-02-23T09:12:45;101169.00;;;5.70;100.00
53262;BME280;39658;51.090;-1.786;2023-02-23T09:15:11;101168.69;;;5.78;100.00
53262;BME280;39658;51.090;-1.786;2023-02-23T09:17:38;101166.25;;;5.73;100.00
53262;BME280;39658;51.090;-1.786;2023-02-23T09:20:08;101164.94;;;5.85;100.00
53262;BME280;39658;51.090;-1.786;2023-02-23T09:22:37;101153.09;;;5.74;100.00
53262;BME280;39658;51.090;-1.786;2023-02-23T09:25:04;101167.13;;;5.73;100.00
53262;BME280;39658;51.090;-1.786;2023-02-23T09:27:34;101166.88;;;6.03;100.00
53262;BME280;39658;51.090;-1.786;2023-02-23T09:30:01;101156.09;;;6.11;100.00
53262;BME280;39658;51.090;-1.786;2023-02-23T09:32:28;101151.22;;;6.02;100.00
53262;BME280;39658;51.090;-1.786;2023-02-23T09:34:54;101155.31;;;5.85;100.00
53262;BME280;39658;51.090;-1.786;2023-02-23T09:37:21;101158.28;;;6.00;100.00
53262;BME280;39658;51.090;-1.786;2023-02-23T09:39:49;101161.25;;;6.13;100.00
53262;BME280;39658;51.090;-1.786;2023-02-23T09:42:27;101165.63;;;6.12;100.00
53262;BME280;39658;51.090;-1.786;2023-02-23T09:45:18;101176.47;;;6.03;100.00
53262;BME280;39658;51.090;-1.786;2023-02-23T09:47:57;101169.13;;;6.13;100.00
53262;BME280;39658;51.090;-1.786;2023-02-23T09:50:29;101163.47;;;6.01;100.00
53262;BME280;39658;51.090;-1.786;2023-02-23T09:52:58;101174.47;;;6.09;100.00
53262;BME280;39658;51.090;-1.786;2023-02-23T09:55:27;101181.13;;;5.94;100.00
53262;BME280;39658;51.090;-1.786;2023-02-23T09:57:56;101172.44;;;5.94;100.00
53262;BME280;39658;51.090;-1.786;2023-02-23T10:00:27;101185.13;;;6.05;100.00
53262;BME280;39658;51.090;-1.786;2023-02-23T10:03:02;101183.81;;;6.15;100.00
53262;BME280;39658;51.090;-1.786;2023-02-23T10:05:36;101179.81;;;6.28;100.00
53262;BME280;39658;51.090;-1.786;2023-02-23T10:08:06;101179.03;;;6.26;100.00
53262;BME280;39658;51.090;-1.786;2023-02-23T10:10:41;101178.16;;;6.26;100.00
53262;BME280;39658;51.090;-1.786;2023-02-23T10:13:14;101187.72;;;6.27;100.00
53262;BME280;39658;51.090;-1.786;2023-02-23T10:15:48;101191.19;;;6.27;100.00
53262;BME280;39658;51.090;-1.786;2023-02-23T10:18:23;101191.63;;;6.17;100.00
53262;BME280;39658;51.090;-1.786;2023-02-23T10:20:59;101192.63;;;6.14;100.00
53262;BME280;39658;51.090;-1.786;2023-02-23T10:23:30;101198.13;;;6.28;100.00
53262;BME280;39658;51.090;-1.786;2023-02-23T10:25:59;101184.72;;;6.36;100.00
53262;BME280;39658;51.090;-1.786;2023-02-23T10:28:32;101182.25;;;6.33;100.00
53262;BME280;39658;51.090;-1.786;2023-02-23T10:31:01;101189.22;;;6.55;100.00
53262;BME280;39658;51.090;-1.786;2023-02-23T10:33:32;101187.63;;;6.51;100.00
53262;BME280;39658;51.090;-1.786;2023-02-23T10:36:09;101194.78;;;6.47;100.00
53262;BME280;39658;51.090;-1.786;2023-02-23T10:38:38;101194.25;;;6.39;100.00
53262;BME280;39658;51.090;-1.786;2023-02-23T10:41:05;101187.09;;;6.42;100.00
53262;BME280;39658;51.090;-1.786;2023-02-23T10:43:32;101202.50;;;6.50;100.00
53262;BME280;39658;51.090;-1.786;2023-02-23T10:46:00;101204.28;;;6.50;100.00
53262;BME280;39658;51.090;-1.786;2023-02-23T10:48:32;101212.13;;;6.50;100.00
53262;BME280;39658;51.090;-1.786;2023-02-23T10:51:03;101206.91;;;6.70;100.00
53262;BME280;39658;51.090;-1.786;2023-02-23T10:53:32;101198.00;;;7.34;100.00
53262;BME280;39658;51.090;-1.786;2023-02-23T10:56:04;101208.00;;;7.26;100.00
53262;BME280;39658;51.090;-1.786;2023-02-23T10:58:39;101207.88;;;7.29;100.00
53262;BME280;39658;51.090;-1.786;2023-02-23T11:01:08;101205.31;;;7.28;100.00
53262;BME280;39658;51.090;-1.786;2023-02-23T11:03:37;101203.38;;;7.12;100.00
53262;BME280;39658;51.090;-1.786;2023-02-23T11:06:06;101199.50;;;7.00;100.00
53262;BME280;39658;51.090;-1.786;2023-02-23T11:08:34;101207.56;;;6.96;100.00
53262;BME280;39658;51.090;-1.786;2023-02-23T11:11:05;101209.09;;;6.81;100.00
53262;BME280;39658;51.090;-1.786;2023-02-23T11:13:35;101226.28;;;6.66;100.00
53262;BME280;39658;51.090;-1.786;2023-02-23T11:16:05;101221.78;;;6.70;100.00
53262;BME280;39658;51.090;-1.786;2023-02-23T11:18:36;101218.50;;;6.64;100.00
53262;BME280;39658;51.090;-1.786;2023-02-23T11:21:09;101206.25;;;6.86;100.00
53262;BME280;39658;51.090;-1.786;2023-02-23T11:23:38;101214.84;;;6.89;100.00
53262;BME280;39658;51.090;-1.786;2023-02-23T11:26:19;101219.75;;;6.76;100.00
53262;BME280;39658;51.090;-1.786;2023-02-23T11:28:50;101227.69;;;6.75;100.00
53262;BME280;39658;51.090;-1.786;2023-02-23T11:31:21;101231.59;;;6.85;100.00
53262;BME280;39658;51.090;-1.786;2023-02-23T11:33:53;101230.63;;;6.88;100.00
53262;BME280;39658;51.090;-1.786;2023-02-23T11:36:26;101231.53;;;6.87;100.00
53262;BME280;39658;51.090;-1.786;2023-02-23T11:39:04;101234.84;;;6.92;100.00
53262;BME280;39658;51.090;-1.786;2023-02-23T11:41:32;101232.53;;;7.05;100.00
53262;BME280;39658;51.090;-1.786;2023-02-23T11:44:00;101227.41;;;7.22;100.00
53262;BME280;39658;51.090;-1.786;2023-02-23T11:46:30;101230.69;;;7.27;100.00
53262;BME280;39658;51.090;-1.786;2023-02-23T11:49:00;101238.28;;;7.13;100.00
53262;BME280;39658;51.090;-1.786;2023-02-23T11:51:30;101217.31;;;7.13;100.00
53262;BME280;39658;51.090;-1.786;2023-02-23T11:53:57;101229.63;;;7.31;100.00
53262;BME280;39658;51.090;-1.786;2023-02-23T11:56:27;101235.69;;;7.33;100.00
53262;BME280;39658;51.090;-1.786;2023-02-23T11:58:57;101237.63;;;7.49;100.00
53262;BME280;39658;51.090;-1.786;2023-02-23T12:01:36;101225.53;;;7.45;100.00
53262;BME280;39658;51.090;-1.786;2023-02-23T12:04:06;101231.56;;;7.47;100.00
53262;BME280;39658;51.090;-1.786;2023-02-23T12:06:36;101213.06;;;7.50;100.00
53262;BME280;39658;51.090;-1.786;2023-02-23T12:09:11;101211.25;;;7.52;100.00
53262;BME280;39658;51.090;-1.786;2023-02-23T12:11:47;101216.91;;;7.62;100.00
53262;BME280;39658;51.090;-1.786;2023-02-23T12:14:23;101214.78;;;7.51;100.00
53262;BME280;39658;51.090;-1.786;2023-02-23T12:16:52;101217.41;;;7.51;100.00
53262;BME280;39658;51.090;-1.786;2023-02-23T12:19:25;101212.66;;;7.59;100.00
53262;BME280;39658;51.090;-1.786;2023-02-23T12:21:59;101216.97;;;7.79;100.00
53262;BME280;39658;51.090;-1.786;2023-02-23T12:24:38;101211.25;;;7.71;100.00
53262;BME280;39658;51.090;-1.786;2023-02-23T12:27:10;101217.97;;;7.77;100.00
53262;BME280;39658;51.090;-1.786;2023-02-23T12:29:43;101223.44;;;7.72;100.00
53262;BME280;39658;51.090;-1.786;2023-02-23T12:32:18;101208.25;;;7.79;100.00
53262;BME280;39658;51.090;-1.786;2023-02-23T12:34:50;101207.03;;;7.86;100.00
53262;BME280;39658;51.090;-1.786;2023-02-23T12:37:29;101210.28;;;7.72;100.00
53262;BME280;39658;51.090;-1.786;2023-02-23T12:40:10;101225.31;;;7.30;100.00
53262;BME280;39658;51.090;-1.786;2023-02-23T12:42:45;101225.00;;;6.97;100.00
53262;BME280;39658;51.090;-1.786;2023-02-23T12:45:20;101225.84;;;6.77;100.00
53262;BME280;39658;51.090;-1.786;2023-02-23T12:47:52;101231.47;;;6.68;100.00
53262;BME280;39658;51.090;-1.786;2023-02-23T12:50:26;101232.72;;;6.59;100.00
53262;BME280;39658;51.090;-1.786;2023-02-23T12:52:57;101226.66;;;6.57;100.00
53262;BME280;39658;51.090;-1.786;2023-02-23T12:55:33;101229.53;;;6.93;100.00
53262;BME280;39658;51.090;-1.786;2023-02-23T12:58:12;101227.41;;;7.22;100.00
53262;BME280;39658;51.090;-1.786;2023-02-23T13:00:45;101218.44;;;7.28;100.00
53262;BME280;39658;51.090;-1.786;2023-02-23T13:03:39;101223.59;;;7.29;100.00
53262;BME280;39658;51.090;-1.786;2023-02-23T13:06:19;101231.09;;;7.18;100.00
53262;BME280;39658;51.090;-1.786;2023-02-23T13:08:57;101227.28;;;7.05;100.00
53262;BME280;39658;51.090;-1.786;2023-02-23T13:11:43;101238.03;;;6.78;100.00
53262;BME280;39658;51.090;-1.786;2023-02-23T13:14:17;101239.59;;;6.61;100.00